sensor_id;sensor_type;location;lat;lon;timestamp;P1;durP1;ratioP1;P2;durP2;ratioP2
12271;SDS011;6198;51.446;6.698;2022-12-18T00:02:17;19.97;;;13.97;;
12271;SDS011;6198;51.446;6.698;2022-12-18T00:04:43;22.03;;;13.73;;
12271;SDS011;6198;51.446;6.698;2022-12-18T00:07:09;23.73;;;13.37;;
12271;SDS011;6198;51.446;6.698;2022-12-18T00:09:35;23.27;;;14.27;;
12271;SDS011;6198;51.446;6.698;2022-12-18T00:12:01;21.63;;;13.47;;
12271;SDS011;6198;51.446;6.698;2022-12-18T00:14:27;20.27;;;13.97;;
12271;SDS011;6198;51.446;6.698;2022-12-18T00:16:52;20.73;;;13.80;;
12271;SDS011;6198;51.446;6.698;2022-12-18T00:19:18;22.40;;;14.23;;
12271;SDS011;6198;51.446;6.698;2022-12-18T00:21:44;20.40;;;13.93;;
12271;SDS011;6198;51.446;6.698;2022-12-18T00:24:11;21.33;;;13.40;;
12271;SDS011;6198;51.446;6.698;2022-12-18T00:26:37;20.63;;;12.90;;
12271;SDS011;6198;51.446;6.698;2022-12-18T00:29:10;19.83;;;12.97;;
12271;SDS011;6198;51.446;6.698;2022-12-18T00:31:36;20.30;;;13.47;;
12271;SDS011;6198;51.446;6.698;2022-12-18T00:34:03;19.10;;;12.93;;
12271;SDS011;6198;51.446;6.698;2022-12-18T00:36:30;18.17;;;12.30;;
12271;SDS011;6198;51.446;6.698;2022-12-18T00:38:57;21.20;;;13.03;;
12271;SDS011;6198;51.446;6.698;2022-12-18T00:41:23;20.37;;;12.70;;
12271;SDS011;6198;51.446;6.698;2022-12-18T00:44:09;20.27;;;12.40;;
12271;SDS011;6198;51.446;6.698;2022-12-18T00:46:36;24.73;;;12.37;;
12271;SDS011;6198;51.446;6.698;2022-12-18T00:49:02;21.70;;;12.47;;
12271;SDS011;6198;51.446;6.698;2022-12-18T00:51:28;18.83;;;11.60;;
12271;SDS011;6198;51.446;6.698;2022-12-18T00:53:54;16.90;;;11.80;;
12271;SDS011;6198;51.446;6.698;2022-12-18T00:56:20;17.70;;;11.67;;
12271;SDS011;6198;51.446;6.698;2022-12-18T00:58:46;17.77;;;11.50;;
12271;SDS011;6198;51.446;6.698;2022-12-18T01:01:11;16.93;;;12.43;;
12271;SDS011;6198;51.446;6.698;2022-12-18T01:03:37;16.37;;;11.57;;
12271;SDS011;6198;51.446;6.698;2022-12-18T01:06:07;18.00;;;11.23;;
12271;SDS011;6198;51.446;6.698;2022-12-18T01:08:34;17.23;;;11.20;;
12271;SDS011;6198;51.446;6.698;2022-12-18T01:11:00;24.47;;;11.40;;
12271;SDS011;6198;51.446;6.698;2022-12-18T01:13:26;19.97;;;12.90;;
12271;SDS011;6198;51.446;6.698;2022-12-18T01:15:52;17.67;;;11.77;;
12271;SDS011;6198;51.446;6.698;2022-12-18T01:18:18;21.03;;;12.57;;
12271;SDS011;6198;51.446;6.698;2022-12-18T01:20:44;18.37;;;13.07;;
12271;SDS011;6198;51.446;6.698;2022-12-18T01:23:10;16.70;;;11.97;;
12271;SDS011;6198;51.446;6.698;2022-12-18T01:25:36;20.80;;;12.23;;
12271;SDS011;6198;51.446;6.698;2022-12-18T01:28:02;17.23;;;11.97;;
12271;SDS011;6198;51.446;6.698;2022-12-18T01:30:28;19.90;;;12.00;;
12271;SDS011;6198;51.446;6.698;2022-12-18T01:32:54;18.40;;;11.60;;
12271;SDS011;6198;51.446;6.698;2022-12-18T01:35:20;16.53;;;11.53;;
12271;SDS011;6198;51.446;6.698;2022-12-18T01:37:46;17.73;;;11.63;;
12271;SDS011;6198;51.446;6.698;2022-12-18T01:40:12;15.87;;;11.47;;
12271;SDS011;6198;51.446;6.698;2022-12-18T01:42:38;18.53;;;11.60;;
12271;SDS011;6198;51.446;6.698;2022-12-18T01:50:00;17.47;;;10.97;;
12271;SDS011;6198;51.446;6.698;2022-12-18T01:52:28;15.93;;;11.03;;
12271;SDS011;6198;51.446;6.698;2022-12-18T01:54:54;17.33;;;11.00;;
12271;SDS011;6198;51.446;6.698;2022-12-18T01:57:21;16.50;;;11.17;;
12271;SDS011;6198;51.446;6.698;2022-12-18T01:59:49;16.83;;;11.03;;
12271;SDS011;6198;51.446;6.698;2022-12-18T02:02:16;18.10;;;11.63;;
12271;SDS011;6198;51.446;6.698;2022-12-18T02:04:43;19.23;;;11.63;;
12271;SDS011;6198;51.446;6.698;2022-12-18T02:12:20;20.00;;;12.50;;
12271;SDS011;6198;51.446;6.698;2022-12-18T02:14:58;18.13;;;11.83;;
12271;SDS011;6198;51.446;6.698;2022-12-18T02:18:00;18.07;;;11.07;;
12271;SDS011;6198;51.446;6.698;2022-12-18T02:23:31;19.57;;;12.17;;
12271;SDS011;6198;51.446;6.698;2022-12-18T02:28:15;20.57;;;12.13;;
12271;SDS011;6198;51.446;6.698;2022-12-18T02:30:42;15.47;;;10.90;;
12271;SDS011;6198;51.446;6.698;2022-12-18T02:33:08;17.03;;;11.60;;
12271;SDS011;6198;51.446;6.698;2022-12-18T02:35:36;18.60;;;11.53;;
12271;SDS011;6198;51.446;6.698;2022-12-18T02:38:04;16.27;;;10.97;;
12271;SDS011;6198;51.446;6.698;2022-12-18T02:40:31;15.77;;;11.83;;
12271;SDS011;6198;51.446;6.698;2022-12-18T02:43:11;17.70;;;12.00;;
12271;SDS011;6198;51.446;6.698;2022-12-18T02:45:45;17.00;;;12.23;;
12271;SDS011;6198;51.446;6.698;2022-12-18T02:48:12;21.43;;;11.90;;
12271;SDS011;6198;51.446;6.698;2022-12-18T02:50:40;18.53;;;11.57;;
12271;SDS011;6198;51.446;6.698;2022-12-18T02:58:16;20.87;;;12.70;;
12271;SDS011;6198;51.446;6.698;2022-12-18T03:00:58;17.87;;;11.90;;
12271;SDS011;6198;51.446;6.698;2022-12-18T03:06:16;16.57;;;10.60;;
12271;SDS011;6198;51.446;6.698;2022-12-18T03:08:45;20.07;;;12.17;;
12271;SDS011;6198;51.446;6.698;2022-12-18T03:11:13;15.30;;;12.00;;
12271;SDS011;6198;51.446;6.698;2022-12-18T03:13:46;18.67;;;12.07;;
12271;SDS011;6198;51.446;6.698;2022-12-18T03:16:17;17.00;;;12.03;;
12271;SDS011;6198;51.446;6.698;2022-12-18T03:18:47;18.50;;;11.83;;
12271;SDS011;6198;51.446;6.698;2022-12-18T03:21:14;19.93;;;11.87;;
12271;SDS011;6198;51.446;6.698;2022-12-18T03:23:42;16.60;;;11.23;;
12271;SDS011;6198;51.446;6.698;2022-12-18T03:26:11;21.53;;;13.20;;
12271;SDS011;6198;51.446;6.698;2022-12-18T03:28:40;21.10;;;13.00;;
12271;SDS011;6198;51.446;6.698;2022-12-18T03:31:08;16.80;;;11.90;;
12271;SDS011;6198;51.446;6.698;2022-12-18T03:33:37;17.83;;;12.33;;
12271;SDS011;6198;51.446;6.698;2022-12-18T03:36:05;17.37;;;12.40;;
12271;SDS011;6198;51.446;6.698;2022-12-18T03:38:31;18.83;;;12.37;;
12271;SDS011;6198;51.446;6.698;2022-12-18T03:45:51;16.83;;;12.00;;
12271;SDS011;6198;51.446;6.698;2022-12-18T03:48:21;19.20;;;12.60;;
12271;SDS011;6198;51.446;6.698;2022-12-18T03:50:59;19.83;;;12.70;;
12271;SDS011;6198;51.446;6.698;2022-12-18T03:53:47;16.63;;;11.23;;
12271;SDS011;6198;51.446;6.698;2022-12-18T03:56:15;15.90;;;11.30;;
12271;SDS011;6198;51.446;6.698;2022-12-18T03:58:42;16.90;;;10.77;;
12271;SDS011;6198;51.446;6.698;2022-12-18T04:01:09;17.93;;;11.60;;
12271;SDS011;6198;51.446;6.698;2022-12-18T04:03:38;18.03;;;12.07;;
12271;SDS011;6198;51.446;6.698;2022-12-18T04:06:04;16.67;;;11.60;;
12271;SDS011;6198;51.446;6.698;2022-12-18T04:08:31;17.73;;;11.63;;
12271;SDS011;6198;51.446;6.698;2022-12-18T04:10:57;15.53;;;10.77;;
12271;SDS011;6198;51.446;6.698;2022-12-18T04:13:24;15.13;;;10.53;;
12271;SDS011;6198;51.446;6.698;2022-12-18T04:15:50;15.43;;;10.67;;
12271;SDS011;6198;51.446;6.698;2022-12-18T04:18:16;15.77;;;10.77;;
12271;SDS011;6198;51.446;6.698;2022-12-18T04:20:42;15.37;;;10.53;;
12271;SDS011;6198;51.446;6.698;2022-12-18T04:23:08;12.93;;;9.70;;
12271;SDS011;6198;51.446;6.698;2022-12-18T04:25:34;14.87;;;11.03;;
12271;SDS011;6198;51.446;6.698;2022-12-18T04:28:00;15.33;;;10.73;;
12271;SDS011;6198;51.446;6.698;2022-12-18T04:30:26;17.00;;;10.67;;
12271;SDS011;6198;51.446;6.698;2022-12-18T04:32:52;13.97;;;10.17;;
12271;SDS011;6198;51.446;6.698;2022-12-18T04:35:18;13.23;;;9.57;;
12271;SDS011;6198;51.446;6.698;2022-12-18T04:37:44;14.73;;;10.60;;
12271;SDS011;6198;51.446;6.698;2022-12-18T04:40:10;14.20;;;9.73;;
12271;SDS011;6198;51.446;6.698;2022-12-18T04:42:36;14.67;;;10.10;;
12271;SDS011;6198;51.446;6.698;2022-12-18T04:45:02;15.07;;;9.77;;
12271;SDS011;6198;51.446;6.698;2022-12-18T04:47:28;14.00;;;9.50;;
12271;SDS011;6198;51.446;6.698;2022-12-18T04:49:54;13.67;;;9.87;;
12271;SDS011;6198;51.446;6.698;2022-12-18T04:52:20;14.00;;;9.73;;
12271;SDS011;6198;51.446;6.698;2022-12-18T04:54:46;14.87;;;10.33;;
12271;SDS011;6198;51.446;6.698;2022-12-18T04:57:12;14.63;;;8.90;;
12271;SDS011;6198;51.446;6.698;2022-12-18T04:59:38;14.37;;;9.33;;
12271;SDS011;6198;51.446;6.698;2022-12-18T05:02:04;14.23;;;9.43;;
12271;SDS011;6198;51.446;6.698;2022-12-18T05:04:29;15.33;;;9.87;;
12271;SDS011;6198;51.446;6.698;2022-12-18T05:06:55;12.67;;;8.93;;
12271;SDS011;6198;51.446;6.698;2022-12-18T05:09:22;15.03;;;10.00;;
12271;SDS011;6198;51.446;6.698;2022-12-18T05:11:48;19.23;;;13.27;;
12271;SDS011;6198;51.446;6.698;2022-12-18T05:14:14;17.77;;;12.03;;
12271;SDS011;6198;51.446;6.698;2022-12-18T05:16:40;17.83;;;12.30;;
12271;SDS011;6198;51.446;6.698;2022-12-18T05:19:06;16.83;;;12.30;;
12271;SDS011;6198;51.446;6.698;2022-12-18T05:21:32;16.10;;;11.77;;
12271;SDS011;6198;51.446;6.698;2022-12-18T05:23:58;16.83;;;11.43;;
12271;SDS011;6198;51.446;6.698;2022-12-18T05:26:24;16.57;;;12.20;;
12271;SDS011;6198;51.446;6.698;2022-12-18T05:28:50;16.37;;;11.67;;
12271;SDS011;6198;51.446;6.698;2022-12-18T05:31:16;19.37;;;14.03;;
12271;SDS011;6198;51.446;6.698;2022-12-18T05:33:42;16.83;;;12.50;;
12271;SDS011;6198;51.446;6.698;2022-12-18T05:36:09;21.07;;;15.13;;
12271;SDS011;6198;51.446;6.698;2022-12-18T05:38:36;19.27;;;13.73;;
12271;SDS011;6198;51.446;6.698;2022-12-18T05:41:03;21.07;;;15.13;;
12271;SDS011;6198;51.446;6.698;2022-12-18T05:43:29;17.03;;;11.87;;
12271;SDS011;6198;51.446;6.698;2022-12-18T05:45:55;15.30;;;11.00;;
12271;SDS011;6198;51.446;6.698;2022-12-18T05:48:22;14.50;;;10.30;;
12271;SDS011;6198;51.446;6.698;2022-12-18T05:50:49;12.80;;;9.43;;
12271;SDS011;6198;51.446;6.698;2022-12-18T05:53:16;13.27;;;9.90;;
12271;SDS011;6198;51.446;6.698;2022-12-18T05:55:43;11.67;;;9.20;;
12271;SDS011;6198;51.446;6.698;2022-12-18T05:58:09;13.13;;;9.10;;
12271;SDS011;6198;51.446;6.698;2022-12-18T06:00:37;12.43;;;9.07;;
12271;SDS011;6198;51.446;6.698;2022-12-18T06:03:07;12.47;;;9.07;;
12271;SDS011;6198;51.446;6.698;2022-12-18T06:05:40;12.37;;;9.00;;
12271;SDS011;6198;51.446;6.698;2022-12-18T06:08:06;10.37;;;8.43;;
12271;SDS011;6198;51.446;6.698;2022-12-18T06:10:32;12.87;;;9.27;;
12271;SDS011;6198;51.446;6.698;2022-12-18T06:12:58;13.17;;;8.37;;
12271;SDS011;6198;51.446;6.698;2022-12-18T06:15:24;14.23;;;9.93;;
12271;SDS011;6198;51.446;6.698;2022-12-18T06:17:50;12.30;;;8.53;;
12271;SDS011;6198;51.446;6.698;2022-12-18T06:20:16;12.27;;;9.33;;
12271;SDS011;6198;51.446;6.698;2022-12-18T06:22:42;12.67;;;8.67;;
12271;SDS011;6198;51.446;6.698;2022-12-18T06:25:08;14.47;;;9.70;;
12271;SDS011;6198;51.446;6.698;2022-12-18T06:27:34;14.03;;;9.87;;
12271;SDS011;6198;51.446;6.698;2022-12-18T06:30:00;13.83;;;10.93;;
12271;SDS011;6198;51.446;6.698;2022-12-18T06:32:27;16.43;;;10.33;;
12271;SDS011;6198;51.446;6.698;2022-12-18T06:34:53;13.33;;;10.40;;
12271;SDS011;6198;51.446;6.698;2022-12-18T06:37:20;14.93;;;10.23;;
12271;SDS011;6198;51.446;6.698;2022-12-18T06:39:46;16.23;;;8.80;;
12271;SDS011;6198;51.446;6.698;2022-12-18T06:42:12;11.90;;;8.77;;
12271;SDS011;6198;51.446;6.698;2022-12-18T06:44:38;11.63;;;8.20;;
12271;SDS011;6198;51.446;6.698;2022-12-18T06:47:04;14.80;;;8.80;;
12271;SDS011;6198;51.446;6.698;2022-12-18T06:49:30;12.93;;;9.13;;
12271;SDS011;6198;51.446;6.698;2022-12-18T06:51:56;14.53;;;9.43;;
12271;SDS011;6198;51.446;6.698;2022-12-18T06:54:22;14.40;;;9.10;;
12271;SDS011;6198;51.446;6.698;2022-12-18T06:56:48;14.10;;;9.30;;
12271;SDS011;6198;51.446;6.698;2022-12-18T06:59:14;16.37;;;9.07;;
12271;SDS011;6198;51.446;6.698;2022-12-18T07:01:40;13.77;;;8.70;;
12271;SDS011;6198;51.446;6.698;2022-12-18T07:04:06;13.10;;;8.87;;
12271;SDS011;6198;51.446;6.698;2022-12-18T07:06:32;12.00;;;9.30;;
12271;SDS011;6198;51.446;6.698;2022-12-18T07:08:58;12.73;;;8.80;;
12271;SDS011;6198;51.446;6.698;2022-12-18T07:11:24;14.10;;;9.53;;
12271;SDS011;6198;51.446;6.698;2022-12-18T07:13:51;12.33;;;9.07;;
12271;SDS011;6198;51.446;6.698;2022-12-18T07:16:18;14.20;;;9.37;;
12271;SDS011;6198;51.446;6.698;2022-12-18T07:18:45;15.87;;;9.47;;
12271;SDS011;6198;51.446;6.698;2022-12-18T07:21:12;14.53;;;10.50;;
12271;SDS011;6198;51.446;6.698;2022-12-18T07:23:38;12.63;;;9.33;;
12271;SDS011;6198;51.446;6.698;2022-12-18T07:26:05;14.13;;;10.37;;
12271;SDS011;6198;51.446;6.698;2022-12-18T07:28:31;15.13;;;10.80;;
12271;SDS011;6198;51.446;6.698;2022-12-18T07:30:58;16.90;;;11.23;;
12271;SDS011;6198;51.446;6.698;2022-12-18T07:33:24;15.00;;;11.10;;
12271;SDS011;6198;51.446;6.698;2022-12-18T07:35:50;13.13;;;10.67;;
12271;SDS011;6198;51.446;6.698;2022-12-18T07:38:16;13.53;;;9.63;;
12271;SDS011;6198;51.446;6.698;2022-12-18T07:40:42;15.10;;;10.47;;
12271;SDS011;6198;51.446;6.698;2022-12-18T07:43:08;13.83;;;9.67;;
12271;SDS011;6198;51.446;6.698;2022-12-18T07:45:34;15.57;;;10.10;;
12271;SDS011;6198;51.446;6.698;2022-12-18T07:48:00;16.20;;;9.50;;
12271;SDS011;6198;51.446;6.698;2022-12-18T07:50:26;15.63;;;10.40;;
12271;SDS011;6198;51.446;6.698;2022-12-18T07:52:52;14.43;;;9.87;;
12271;SDS011;6198;51.446;6.698;2022-12-18T07:55:18;15.00;;;9.93;;
12271;SDS011;6198;51.446;6.698;2022-12-18T07:57:44;13.37;;;8.93;;
12271;SDS011;6198;51.446;6.698;2022-12-18T08:00:10;14.30;;;9.80;;
12271;SDS011;6198;51.446;6.698;2022-12-18T08:02:36;15.17;;;10.03;;
12271;SDS011;6198;51.446;6.698;2022-12-18T08:05:02;12.20;;;8.77;;
12271;SDS011;6198;51.446;6.698;2022-12-18T08:07:28;12.93;;;10.20;;
12271;SDS011;6198;51.446;6.698;2022-12-18T08:09:54;12.30;;;9.53;;
12271;SDS011;6198;51.446;6.698;2022-12-18T08:12:20;13.00;;;9.00;;
12271;SDS011;6198;51.446;6.698;2022-12-18T08:14:46;13.87;;;8.63;;
12271;SDS011;6198;51.446;6.698;2022-12-18T08:17:12;13.13;;;9.80;;
12271;SDS011;6198;51.446;6.698;2022-12-18T08:19:38;13.63;;;9.50;;
12271;SDS011;6198;51.446;6.698;2022-12-18T08:22:04;12.83;;;8.43;;
12271;SDS011;6198;51.446;6.698;2022-12-18T08:24:30;13.03;;;9.07;;
12271;SDS011;6198;51.446;6.698;2022-12-18T08:26:56;10.83;;;8.27;;
12271;SDS011;6198;51.446;6.698;2022-12-18T08:29:22;10.63;;;8.33;;
12271;SDS011;6198;51.446;6.698;2022-12-18T08:31:48;13.30;;;8.80;;
12271;SDS011;6198;51.446;6.698;2022-12-18T08:34:14;12.07;;;7.63;;
12271;SDS011;6198;51.446;6.698;2022-12-18T08:36:40;12.03;;;8.47;;
12271;SDS011;6198;51.446;6.698;2022-12-18T08:39:06;11.43;;;8.20;;
12271;SDS011;6198;51.446;6.698;2022-12-18T08:41:32;12.40;;;8.03;;
12271;SDS011;6198;51.446;6.698;2022-12-18T08:43:58;11.30;;;7.93;;
12271;SDS011;6198;51.446;6.698;2022-12-18T08:46:42;11.57;;;8.33;;
12271;SDS011;6198;51.446;6.698;2022-12-18T08:49:09;11.40;;;7.30;;
12271;SDS011;6198;51.446;6.698;2022-12-18T08:51:36;10.03;;;6.90;;
12271;SDS011;6198;51.446;6.698;2022-12-18T08:54:02;14.13;;;9.10;;
12271;SDS011;6198;51.446;6.698;2022-12-18T08:56:28;13.13;;;8.00;;
12271;SDS011;6198;51.446;6.698;2022-12-18T08:58:55;23.23;;;12.23;;
12271;SDS011;6198;51.446;6.698;2022-12-18T09:01:21;17.27;;;10.77;;
12271;SDS011;6198;51.446;6.698;2022-12-18T09:03:48;14.97;;;9.43;;
12271;SDS011;6198;51.446;6.698;2022-12-18T09:06:15;13.57;;;8.67;;
12271;SDS011;6198;51.446;6.698;2022-12-18T09:08:41;11.83;;;8.20;;
12271;SDS011;6198;51.446;6.698;2022-12-18T09:11:15;12.17;;;7.47;;
12271;SDS011;6198;51.446;6.698;2022-12-18T09:13:41;11.60;;;7.47;;
12271;SDS011;6198;51.446;6.698;2022-12-18T09:16:07;9.73;;;7.47;;
12271;SDS011;6198;51.446;6.698;2022-12-18T09:18:33;10.10;;;6.87;;
12271;SDS011;6198;51.446;6.698;2022-12-18T09:20:59;9.77;;;7.30;;
12271;SDS011;6198;51.446;6.698;2022-12-18T09:23:25;12.73;;;8.30;;
12271;SDS011;6198;51.446;6.698;2022-12-18T09:25:51;10.97;;;7.53;;
12271;SDS011;6198;51.446;6.698;2022-12-18T09:28:17;13.13;;;8.20;;
12271;SDS011;6198;51.446;6.698;2022-12-18T09:30:46;12.73;;;7.67;;
12271;SDS011;6198;51.446;6.698;2022-12-18T09:33:12;10.17;;;7.33;;
12271;SDS011;6198;51.446;6.698;2022-12-18T09:35:39;10.50;;;7.60;;
12271;SDS011;6198;51.446;6.698;2022-12-18T09:38:05;10.63;;;8.13;;
12271;SDS011;6198;51.446;6.698;2022-12-18T09:40:36;12.10;;;7.80;;
12271;SDS011;6198;51.446;6.698;2022-12-18T09:43:03;12.10;;;8.17;;
12271;SDS011;6198;51.446;6.698;2022-12-18T09:45:31;11.10;;;7.80;;
12271;SDS011;6198;51.446;6.698;2022-12-18T09:47:59;18.37;;;10.40;;
12271;SDS011;6198;51.446;6.698;2022-12-18T09:50:38;12.07;;;8.57;;
12271;SDS011;6198;51.446;6.698;2022-12-18T09:53:12;11.03;;;7.67;;
12271;SDS011;6198;51.446;6.698;2022-12-18T09:55:44;11.83;;;8.77;;
12271;SDS011;6198;51.446;6.698;2022-12-18T09:58:19;13.80;;;9.17;;
12271;SDS011;6198;51.446;6.698;2022-12-18T10:00:46;11.63;;;8.53;;
12271;SDS011;6198;51.446;6.698;2022-12-18T10:03:13;11.73;;;7.90;;
12271;SDS011;6198;51.446;6.698;2022-12-18T10:05:42;12.47;;;9.27;;
12271;SDS011;6198;51.446;6.698;2022-12-18T10:08:11;11.73;;;9.03;;
12271;SDS011;6198;51.446;6.698;2022-12-18T10:13:22;13.13;;;8.20;;
12271;SDS011;6198;51.446;6.698;2022-12-18T10:16:06;11.07;;;8.30;;
12271;SDS011;6198;51.446;6.698;2022-12-18T10:21:20;12.10;;;8.53;;
12271;SDS011;6198;51.446;6.698;2022-12-18T10:23:50;12.23;;;8.03;;
12271;SDS011;6198;51.446;6.698;2022-12-18T10:26:18;11.23;;;7.83;;
12271;SDS011;6198;51.446;6.698;2022-12-18T10:28:45;11.40;;;9.00;;
12271;SDS011;6198;51.446;6.698;2022-12-18T10:31:13;13.13;;;8.63;;
12271;SDS011;6198;51.446;6.698;2022-12-18T10:33:41;12.97;;;8.73;;
12271;SDS011;6198;51.446;6.698;2022-12-18T10:36:07;12.43;;;8.67;;
12271;SDS011;6198;51.446;6.698;2022-12-18T10:38:33;12.70;;;8.37;;
12271;SDS011;6198;51.446;6.698;2022-12-18T10:43:44;12.57;;;8.43;;
12271;SDS011;6198;51.446;6.698;2022-12-18T10:48:39;12.97;;;7.63;;
12271;SDS011;6198;51.446;6.698;2022-12-18T10:51:06;10.70;;;7.93;;
12271;SDS011;6198;51.446;6.698;2022-12-18T10:53:33;9.97;;;7.63;;
12271;SDS011;6198;51.446;6.698;2022-12-18T10:56:00;11.50;;;7.77;;
12271;SDS011;6198;51.446;6.698;2022-12-18T10:58:29;13.10;;;8.37;;
12271;SDS011;6198;51.446;6.698;2022-12-18T11:03:38;11.50;;;7.97;;
12271;SDS011;6198;51.446;6.698;2022-12-18T11:08:33;12.27;;;8.33;;
12271;SDS011;6198;51.446;6.698;2022-12-18T11:10:59;10.20;;;7.93;;
12271;SDS011;6198;51.446;6.698;2022-12-18T11:13:26;12.73;;;8.83;;
12271;SDS011;6198;51.446;6.698;2022-12-18T11:15:52;12.17;;;8.90;;
12271;SDS011;6198;51.446;6.698;2022-12-18T11:18:22;14.63;;;10.67;;
12271;SDS011;6198;51.446;6.698;2022-12-18T11:20:53;13.20;;;8.83;;
12271;SDS011;6198;51.446;6.698;2022-12-18T11:23:19;11.60;;;8.63;;
12271;SDS011;6198;51.446;6.698;2022-12-18T11:25:51;10.70;;;8.20;;
12271;SDS011;6198;51.446;6.698;2022-12-18T11:33:37;13.47;;;8.53;;
12271;SDS011;6198;51.446;6.698;2022-12-18T11:36:04;12.57;;;8.60;;
12271;SDS011;6198;51.446;6.698;2022-12-18T11:38:34;13.17;;;8.60;;
12271;SDS011;6198;51.446;6.698;2022-12-18T11:41:05;13.43;;;9.03;;
12271;SDS011;6198;51.446;6.698;2022-12-18T11:46:14;14.27;;;9.10;;
12271;SDS011;6198;51.446;6.698;2022-12-18T11:49:01;11.27;;;8.53;;
12271;SDS011;6198;51.446;6.698;2022-12-18T11:51:34;12.27;;;9.27;;
12271;SDS011;6198;51.446;6.698;2022-12-18T11:54:01;13.03;;;8.87;;
12271;SDS011;6198;51.446;6.698;2022-12-18T11:56:36;13.30;;;8.70;;
12271;SDS011;6198;51.446;6.698;2022-12-18T11:59:09;13.40;;;8.63;;
12271;SDS011;6198;51.446;6.698;2022-12-18T12:01:43;10.90;;;8.40;;
12271;SDS011;6198;51.446;6.698;2022-12-18T12:04:33;13.77;;;9.27;;
12271;SDS011;6198;51.446;6.698;2022-12-18T12:07:05;15.93;;;9.50;;
12271;SDS011;6198;51.446;6.698;2022-12-18T12:12:32;11.07;;;8.40;;
12271;SDS011;6198;51.446;6.698;2022-12-18T12:15:56;13.20;;;9.73;;
12271;SDS011;6198;51.446;6.698;2022-12-18T12:21:28;15.53;;;9.67;;
12271;SDS011;6198;51.446;6.698;2022-12-18T12:26:07;15.63;;;10.03;;
12271;SDS011;6198;51.446;6.698;2022-12-18T12:34:13;14.37;;;9.17;;
12271;SDS011;6198;51.446;6.698;2022-12-18T12:36:46;15.23;;;10.00;;
12271;SDS011;6198;51.446;6.698;2022-12-18T12:39:15;12.97;;;9.40;;
12271;SDS011;6198;51.446;6.698;2022-12-18T12:41:43;14.17;;;9.70;;
12271;SDS011;6198;51.446;6.698;2022-12-18T12:44:33;12.70;;;8.67;;
12271;SDS011;6198;51.446;6.698;2022-12-18T12:47:04;14.63;;;10.60;;
12271;SDS011;6198;51.446;6.698;2022-12-18T12:49:31;20.90;;;14.13;;
12271;SDS011;6198;51.446;6.698;2022-12-18T12:52:00;15.20;;;10.83;;
12271;SDS011;6198;51.446;6.698;2022-12-18T12:54:29;14.03;;;9.43;;
12271;SDS011;6198;51.446;6.698;2022-12-18T12:56:59;13.60;;;10.37;;
12271;SDS011;6198;51.446;6.698;2022-12-18T12:59:30;14.57;;;9.80;;
12271;SDS011;6198;51.446;6.698;2022-12-18T13:02:10;15.07;;;9.87;;
12271;SDS011;6198;51.446;6.698;2022-12-18T13:04:46;15.33;;;9.97;;
12271;SDS011;6198;51.446;6.698;2022-12-18T13:10:12;17.63;;;10.83;;
12271;SDS011;6198;51.446;6.698;2022-12-18T13:12:58;13.13;;;9.93;;
12271;SDS011;6198;51.446;6.698;2022-12-18T13:15:35;20.17;;;13.47;;
12271;SDS011;6198;51.446;6.698;2022-12-18T13:20:32;15.97;;;11.10;;
12271;SDS011;6198;51.446;6.698;2022-12-18T13:22:59;14.10;;;10.20;;
12271;SDS011;6198;51.446;6.698;2022-12-18T13:25:29;14.60;;;10.67;;
12271;SDS011;6198;51.446;6.698;2022-12-18T13:31:06;15.13;;;10.63;;
12271;SDS011;6198;51.446;6.698;2022-12-18T13:35:40;17.47;;;11.37;;
12271;SDS011;6198;51.446;6.698;2022-12-18T13:40:54;16.27;;;11.43;;
12271;SDS011;6198;51.446;6.698;2022-12-18T13:45:58;16.73;;;12.10;;
12271;SDS011;6198;51.446;6.698;2022-12-18T13:48:25;16.30;;;11.80;;
12271;SDS011;6198;51.446;6.698;2022-12-18T13:51:02;16.73;;;11.70;;
12271;SDS011;6198;51.446;6.698;2022-12-18T13:53:30;18.47;;;11.17;;
12271;SDS011;6198;51.446;6.698;2022-12-18T13:55:58;17.57;;;12.07;;
12271;SDS011;6198;51.446;6.698;2022-12-18T13:58:24;17.40;;;12.20;;
12271;SDS011;6198;51.446;6.698;2022-12-18T14:00:50;17.03;;;12.43;;
12271;SDS011;6198;51.446;6.698;2022-12-18T14:03:18;18.10;;;12.03;;
12271;SDS011;6198;51.446;6.698;2022-12-18T14:05:44;17.63;;;11.10;;
12271;SDS011;6198;51.446;6.698;2022-12-18T14:08:12;16.67;;;12.00;;
12271;SDS011;6198;51.446;6.698;2022-12-18T14:10:43;16.73;;;11.80;;
12271;SDS011;6198;51.446;6.698;2022-12-18T14:13:10;17.50;;;10.23;;
12271;SDS011;6198;51.446;6.698;2022-12-18T14:15:40;18.83;;;13.00;;
12271;SDS011;6198;51.446;6.698;2022-12-18T14:18:17;20.17;;;13.10;;
12271;SDS011;6198;51.446;6.698;2022-12-18T14:20:45;18.90;;;13.30;;
12271;SDS011;6198;51.446;6.698;2022-12-18T14:25:55;21.37;;;12.47;;
12271;SDS011;6198;51.446;6.698;2022-12-18T14:28:21;19.50;;;11.70;;
12271;SDS011;6198;51.446;6.698;2022-12-18T14:30:47;16.47;;;11.33;;
12271;SDS011;6198;51.446;6.698;2022-12-18T14:33:17;18.07;;;12.47;;
12271;SDS011;6198;51.446;6.698;2022-12-18T14:35:54;21.43;;;13.20;;
12271;SDS011;6198;51.446;6.698;2022-12-18T14:40:56;19.53;;;12.83;;
12271;SDS011;6198;51.446;6.698;2022-12-18T14:43:23;19.57;;;13.13;;
12271;SDS011;6198;51.446;6.698;2022-12-18T14:45:49;20.30;;;13.80;;
12271;SDS011;6198;51.446;6.698;2022-12-18T14:50:42;18.33;;;13.77;;
12271;SDS011;6198;51.446;6.698;2022-12-18T14:53:18;21.57;;;13.77;;
12271;SDS011;6198;51.446;6.698;2022-12-18T14:55:46;20.87;;;14.17;;
12271;SDS011;6198;51.446;6.698;2022-12-18T14:58:14;21.07;;;14.10;;
12271;SDS011;6198;51.446;6.698;2022-12-18T15:00:41;20.67;;;14.00;;
12271;SDS011;6198;51.446;6.698;2022-12-18T15:03:07;27.03;;;17.57;;
12271;SDS011;6198;51.446;6.698;2022-12-18T15:05:34;18.83;;;13.80;;
12271;SDS011;6198;51.446;6.698;2022-12-18T15:08:01;21.10;;;13.80;;
12271;SDS011;6198;51.446;6.698;2022-12-18T15:10:29;22.77;;;15.00;;
12271;SDS011;6198;51.446;6.698;2022-12-18T15:18:03;24.60;;;15.27;;
12271;SDS011;6198;51.446;6.698;2022-12-18T15:20:31;21.43;;;13.43;;
12271;SDS011;6198;51.446;6.698;2022-12-18T15:22:57;20.53;;;15.20;;
12271;SDS011;6198;51.446;6.698;2022-12-18T15:25:28;23.73;;;14.97;;
12271;SDS011;6198;51.446;6.698;2022-12-18T15:27:57;21.90;;;15.00;;
12271;SDS011;6198;51.446;6.698;2022-12-18T15:30:24;23.60;;;14.57;;
12271;SDS011;6198;51.446;6.698;2022-12-18T15:32:50;24.43;;;16.53;;
12271;SDS011;6198;51.446;6.698;2022-12-18T15:35:18;23.33;;;15.97;;
12271;SDS011;6198;51.446;6.698;2022-12-18T15:37:44;24.03;;;16.07;;
12271;SDS011;6198;51.446;6.698;2022-12-18T15:40:14;19.57;;;13.17;;
12271;SDS011;6198;51.446;6.698;2022-12-18T15:42:40;28.83;;;19.83;;
12271;SDS011;6198;51.446;6.698;2022-12-18T15:45:25;25.73;;;18.03;;
12271;SDS011;6198;51.446;6.698;2022-12-18T15:47:51;23.70;;;15.70;;
12271;SDS011;6198;51.446;6.698;2022-12-18T15:50:17;21.87;;;16.03;;
12271;SDS011;6198;51.446;6.698;2022-12-18T15:52:44;23.40;;;15.93;;
12271;SDS011;6198;51.446;6.698;2022-12-18T15:55:14;24.13;;;15.17;;
12271;SDS011;6198;51.446;6.698;2022-12-18T15:57:59;20.90;;;14.97;;
12271;SDS011;6198;51.446;6.698;2022-12-18T16:00:25;25.53;;;16.90;;
12271;SDS011;6198;51.446;6.698;2022-12-18T16:02:51;25.40;;;15.77;;
12271;SDS011;6198;51.446;6.698;2022-12-18T16:05:18;25.23;;;16.37;;
12271;SDS011;6198;51.446;6.698;2022-12-18T16:07:45;28.00;;;16.33;;
12271;SDS011;6198;51.446;6.698;2022-12-18T16:10:11;23.97;;;17.07;;
12271;SDS011;6198;51.446;6.698;2022-12-18T16:12:37;21.87;;;15.23;;
12271;SDS011;6198;51.446;6.698;2022-12-18T16:15:03;33.87;;;22.33;;
12271;SDS011;6198;51.446;6.698;2022-12-18T16:17:29;23.47;;;15.30;;
12271;SDS011;6198;51.446;6.698;2022-12-18T16:19:55;26.90;;;17.97;;
12271;SDS011;6198;51.446;6.698;2022-12-18T16:22:26;29.27;;;19.43;;